Time;durP1;ratioP1;P1;durP2;ratioP2;P2;SDS_P1;SDS_P2;PMS_P1;PMS_P2;Temp;Humidity;BMP_temperature;BMP_pressure;BME280_temperature;BME280_humidity;BME280_pressure;Samples;Min_cycle;Max_cycle;Signal;HPM_P1;HPM_P2
2023/08/30 05:59:20;;;;;;;21.38;12.07;;;11.90;99.90;;;;;;6232540;22;20551;-85
2023/08/30 06:01:45;;;;;;;19.48;11.45;;;11.70;99.90;;;;;;6246549;22;20031;-86
2023/08/30 06:04:14;;;;;;;21.50;12.05;;;12.00;99.90;;;;;;6248271;22;20007;-84
2023/08/30 06:06:58;;;;;;;22.20;11.85;;;12.10;99.90;;;;;;6247932;22;20008;-84
2023/08/30 06:09:24;;;;;;;;;;;12.10;99.90;;;;;;6248641;22;20467;-84
2023/08/30 06:11:50;;;;;;;21.42;12.10;;;12.10;99.90;;;;;;6274449;22;19911;-83
2023/08/30 06:14:38;;;;;;;20.15;11.38;;;12.30;99.90;;;;;;6275084;22;20090;-84
2023/08/30 06:17:16;;;;;;;22.55;11.93;;;12.30;99.90;;;;;;6248486;22;20064;-85
2023/08/30 06:19:59;;;;;;;21.40;11.70;;;13.60;99.90;;;;;;6275563;22;20023;-84
2023/08/30 06:22:37;;;;;;;20.30;11.88;;;12.40;99.90;;;;;;6245579;22;20016;-83
2023/08/30 06:25:04;;;;;;;21.55;12.48;;;12.40;99.90;;;;;;6276205;22;20043;-83
2023/08/30 06:27:30;;;;;;;21.02;11.85;;;12.50;99.90;;;;;;6249302;22;20317;-83
2023/08/30 06:29:55;;;;;;;20.80;12.07;;;13.70;99.90;;;;;;6276270;22;20016;-83
2023/08/30 06:32:21;;;;;;;20.88;12.43;;;13.40;99.90;;;;;;6249977;22;20405;-83
2023/08/30 06:34:47;;;;;;;22.25;12.40;;;12.60;99.90;;;;;;6249649;22;20019;-83
2023/08/30 06:37:24;;;;;;;21.95;12.55;;;12.60;99.90;;;;;;6246994;22;20094;-82
2023/08/30 06:39:50;;;;;;;22.38;12.30;;;13.70;99.90;;;;;;6249584;22;20455;-82
2023/08/30 06:42:23;;;;;;;23.38;12.48;;;12.80;99.90;;;;;;6276767;22;20072;-83
2023/08/30 06:44:51;;;;;;;21.23;12.23;;;12.20;99.90;;;;;;6250013;22;20444;-83
2023/08/30 06:47:32;;;;;;;22.75;13.45;;;12.80;99.90;;;;;;6249817;22;20343;-83
2023/08/30 06:50:00;;;;;;;21.00;12.65;;;12.90;99.90;;;;;;6248852;22;20019;-83
2023/08/30 06:52:34;;;;;;;19.88;11.93;;;13.00;99.90;;;;;;6277074;22;20082;-83
2023/08/30 06:55:00;;;;;;;21.85;11.82;;;13.10;99.90;;;;;;6249863;22;20113;-83
2023/08/30 06:57:34;;;;;;;20.40;12.75;;;13.90;99.90;;;;;;6275347;22;20470;-83
2023/08/30 07:00:07;;;;;;;21.48;11.63;;;13.30;99.90;;;;;;6249416;22;20375;-83
2023/08/30 07:02:39;;;;;;;22.67;12.70;;;13.40;99.90;;;;;;6249900;22;20027;-83
2023/08/30 07:05:06;;;;;;;19.58;11.65;;;13.50;99.90;;;;;;6248667;22;20065;-83
2023/08/30 07:07:32;;;;;;;20.40;11.73;;;13.60;99.90;;;;;;6277338;22;20517;-84
2023/08/30 07:09:58;;;;;;;19.67;11.82;;;13.90;99.90;;;;;;6276990;22;20015;-84
2023/08/30 07:12:33;;;;;;;18.23;11.10;;;13.60;99.90;;;;;;6248912;22;20098;-85
2023/08/30 07:15:11;;;;;;;17.70;10.57;;;13.90;99.90;;;;;;6250402;22;20040;-86
2023/08/30 07:18:01;;;;;;;20.15;10.88;;;14.00;99.90;;;;;;6248074;22;20020;-87
2023/08/30 07:21:14;;;;;;;;;;;;;;;;;;;;;
2023/08/30 07:24:10;;;;;;;22.75;11.70;;;14.60;99.90;;;;;;6205167;22;20015;-88
2023/08/30 07:26:36;;;;;;;18.85;10.82;;;14.80;99.90;;;;;;6250290;22;20359;-87
2023/08/30 07:29:26;;;;;;;18.20;10.70;;;15.30;99.90;;;;;;6250124;22;20070;-85
2023/08/30 07:32:00;;;;;;;19.65;11.32;;;15.10;99.90;;;;;;6248744;22;20047;-84
2023/08/30 07:34:26;;;;;;;19.63;10.45;;;15.30;99.90;;;;;;6249652;22;20024;-85
2023/08/30 07:36:55;;;;;;;16.73;9.65;;;15.30;99.90;;;;;;6276568;22;20539;-84
2023/08/30 07:39:21;;;;;;;17.85;10.02;;;16.40;99.90;;;;;;6248772;22;20015;-86
2023/08/30 07:42:13;;;;;;;16.10;9.13;;;15.30;99.90;;;;;;6248888;22;20034;-87
2023/08/30 07:44:57;;;;;;;17.02;9.25;;;15.20;99.90;;;;;;6188673;23;20450;-85
2023/08/30 07:47:23;;;;;;;16.70;9.68;;;16.50;99.90;;;;;;6188239;23;20055;-85
2023/08/30 07:49:51;;;;;;;18.27;9.50;;;15.40;99.90;;;;;;6188464;23;20341;-85
2023/08/30 07:52:17;;;;;;;18.30;9.48;;;16.20;99.90;;;;;;6215728;23;20017;-85
2023/08/30 07:55:00;;;;;;;18.25;9.63;;;15.30;99.90;;;;;;6187851;23;20158;-85
2023/08/30 07:57:47;;;;;;;17.50;9.70;;;15.30;99.90;;;;;;6189440;23;20403;-85
2023/08/30 08:00:16;;;;;;;16.67;9.13;;;15.30;99.90;;;;;;6188732;23;20434;-85
2023/08/30 08:03:28;;;;;;;17.95;9.45;;;15.30;99.90;;;;;;6196784;23;20449;-85
2023/08/30 08:06:04;;;;;;;16.38;9.32;;;15.30;99.90;;;;;;6170851;23;20028;-87
2023/08/30 08:08:32;;;;;;;17.55;9.48;;;15.20;99.90;;;;;;6189609;23;20015;-88
2023/08/30 08:11:07;;;;;;;17.58;10.00;;;15.60;99.90;;;;;;6188828;23;20013;-87
2023/08/30 08:13:37;;;;;;;16.48;9.60;;;15.80;99.90;;;;;;6227748;22;20241;-87
2023/08/30 08:16:04;;;;;;;16.35;9.60;;;16.20;99.90;;;;;;6219040;23;20054;-87
2023/08/30 08:18:42;;;;;;;15.20;8.50;;;17.10;99.90;;;;;;6219705;22;20079;-87
2023/08/30 08:22:01;;;;;;;16.13;8.90;;;16.40;99.90;;;;;;6247775;22;20020;-87
2023/08/30 08:24:48;;;;;;;18.65;9.05;;;16.70;99.90;;;;;;6269345;22;20340;-87
2023/08/30 08:27:19;;;;;;;15.43;8.45;;;16.60;99.90;;;;;;6277453;22;20030;-87
2023/08/30 08:29:47;;;;;;;14.90;7.82;;;16.80;99.90;;;;;;6275709;22;20018;-87
2023/08/30 08:32:19;;;;;;;15.50;7.90;;;17.50;99.90;;;;;;6277007;22;20023;-87
2023/08/30 08:35:29;;;;;;;15.25;8.57;;;17.20;99.90;;;;;;6249751;22;20023;-87
2023/08/30 08:38:10;;;;;;;13.75;7.93;;;17.50;99.90;;;;;;6249945;22;20031;-87
2023/08/30 08:41:19;;;;;;;13.93;8.07;;;17.40;99.90;;;;;;6250243;22;20321;-87
2023/08/30 08:44:00;;;;;;;14.27;8.10;;;17.00;99.90;;;;;;6248318;22;20020;-87
2023/08/30 08:46:31;;;;;;;14.60;7.93;;;16.90;99.90;;;;;;6249344;22;20054;-87
2023/08/30 08:48:58;;;;;;;14.82;8.13;;;16.90;99.90;;;;;;6247178;22;20016;-87
2023/08/30 08:51:36;;;;;;;16.38;9.00;;;17.40;99.90;;;;;;6250115;22;20012;-86
2023/08/30 08:54:08;;;;;;;16.42;9.00;;;16.80;99.90;;;;;;6249961;22;20015;-87
2023/08/30 08:56:47;;;;;;;16.73;8.80;;;16.80;99.90;;;;;;6275825;22;20027;-87
2023/08/30 08:59:28;;;;;;;17.80;8.85;;;16.80;99.90;;;;;;6249481;22;20015;-86
2023/08/30 09:02:04;;;;;;;17.60;10.15;;;16.60;99.90;;;;;;6248486;22;20620;-86
2023/08/30 09:04:32;;;;;;;15.43;9.50;;;16.60;99.90;;;;;;6248593;22;20089;-86
2023/08/30 09:07:07;;;;;;;18.50;10.52;;;16.50;99.90;;;;;;6276093;22;20378;-86
2023/08/30 09:09:42;;;;;;;16.00;9.63;;;16.50;99.90;;;;;;6249270;22;20020;-86
2023/08/30 09:12:31;;;;;;;17.40;10.05;;;16.50;99.90;;;;;;6276347;22;20401;-86
2023/08/30 09:15:18;;;;;;;17.33;9.30;;;16.30;99.90;;;;;;6248229;22;20026;-86
2023/08/30 09:18:01;;;;;;;18.77;9.82;;;16.40;99.90;;;;;;6275170;22;20016;-86
2023/08/30 09:20:40;;;;;;;17.48;10.40;;;16.30;99.90;;;;;;6222434;23;20042;-86
2023/08/30 09:23:33;;;;;;;19.25;9.80;;;16.40;99.90;;;;;;6219489;23;20024;-86
2023/08/30 09:26:09;;;;;;;16.65;9.77;;;16.30;99.90;;;;;;6217522;23;20055;-86
2023/08/30 09:28:56;;;;;;;17.38;8.77;;;16.30;99.90;;;;;;6220084;23;20020;-88
2023/08/30 09:31:35;;;;;;;15.32;8.25;;;16.50;99.90;;;;;;6245387;23;20091;-87
2023/08/30 09:35:29;;;;;;;15.18;7.82;;;16.20;99.90;;;;;;6218906;23;20027;-87
2023/08/30 09:38:17;;;;;;;15.23;8.32;;;16.10;99.90;;;;;;6117861;23;20322;-86
2023/08/30 09:40:46;;;;;;;16.23;8.45;;;16.20;99.90;;;;;;6218099;23;20024;-87
2023/08/30 09:43:23;;;;;;;15.60;8.70;;;16.00;99.90;;;;;;6218739;23;20008;-86
2023/08/30 09:45:57;;;;;;;15.98;8.98;;;15.70;99.90;;;;;;6244883;23;20016;-86
2023/08/30 09:48:33;;;;;;;15.15;8.82;;;15.80;99.90;;;;;;6218723;23;20344;-86
2023/08/30 09:51:01;;;;;;;15.98;8.85;;;15.60;99.90;;;;;;6245854;23;20027;-86
2023/08/30 09:53:42;;;;;;;16.08;8.85;;;15.70;99.90;;;;;;6218308;23;20057;-86
2023/08/30 09:56:26;;;;;;;15.60;8.88;;;15.90;99.90;;;;;;6246004;23;20016;-86
2023/08/30 09:59:42;;;;;;;15.88;9.27;;;15.50;99.90;;;;;;6219748;23;20091;-86
2023/08/30 10:02:09;;;;;;;16.98;9.80;;;15.30;99.90;;;;;;6248096;23;20055;-86
2023/08/30 10:04:53;;;;;;;18.90;9.07;;;16.00;99.90;;;;;;6222510;23;20020;-86
2023/08/30 10:07:32;;;;;;;16.73;9.95;;;14.90;99.90;;;;;;6219146;22;20036;-87
2023/08/30 10:10:08;;;;;;;16.25;9.80;;;15.30;99.90;;;;;;6219896;23;20016;-86
2023/08/30 10:12:34;;;;;;;17.58;10.18;;;14.80;99.90;;;;;;6220963;23;20012;-87
2023/08/30 10:15:06;;;;;;;16.60;10.05;;;16.00;99.90;;;;;;6246980;23;20037;-85
2023/08/30 10:17:34;;;;;;;16.42;9.93;;;14.90;99.90;;;;;;6220204;23;20082;-86
2023/08/30 10:20:04;;;;;;;19.95;10.45;;;15.30;99.90;;;;;;6246762;23;20063;-86
2023/08/30 10:22:49;;;;;;;18.20;11.10;;;15.40;99.90;;;;;;6247003;23;20017;-87
2023/08/30 10:25:32;;;;;;;17.48;9.50;;;16.50;99.90;;;;;;6219890;23;20329;-85
2023/08/30 10:28:19;;;;;;;16.70;9.45;;;15.70;99.90;;;;;;6246200;23;20386;-85
2023/08/30 10:30:58;;;;;;;17.45;10.02;;;15.90;99.90;;;;;;6247289;23;20023;-86
2023/08/30 10:33:46;;;;;;;16.98;8.82;;;16.10;99.90;;;;;;6220338;23;20031;-87
2023/08/30 10:39:15;;;;;;;14.48;7.47;;;16.10;99.90;;;;;;6278750;22;20379;-86
2023/08/30 10:41:59;;;;;;;14.05;8.20;;;16.00;99.90;;;;;;6249520;22;20348;-86
2023/08/30 10:44:31;;;;;;;14.70;8.02;;;16.00;99.90;;;;;;6249846;22;20046;-85
2023/08/30 10:46:57;;;;;;;15.70;8.00;;;15.90;99.90;;;;;;6250278;22;20020;-86
2023/08/30 10:49:23;;;;;;;16.02;9.02;;;15.90;99.90;;;;;;6249411;22;20394;-87
2023/08/30 10:52:00;;;;;;;14.82;8.70;;;15.80;99.90;;;;;;6250283;22;20460;-87
2023/08/30 10:54:38;;;;;;;15.88;9.93;;;15.70;99.90;;;;;;6278188;22;20051;-88
2023/08/30 10:57:15;;;;;;;16.08;8.90;;;15.60;99.90;;;;;;6250351;22;20019;-87
2023/08/30 11:00:07;;;;;;;15.23;9.63;;;15.80;99.90;;;;;;6250990;22;20015;-87
2023/08/30 11:02:34;;;;;;;17.83;9.65;;;15.40;99.90;;;;;;6249777;22;20062;-87
2023/08/30 11:05:00;;;;;;;15.00;9.45;;;15.30;99.90;;;;;;6277775;22;20019;-88
2023/08/30 11:13:28;;;;;;;16.52;9.48;;;14.80;99.90;;;;;;6281659;22;20019;-86
2023/08/30 11:15:54;;;;;;;16.65;9.80;;;15.10;99.90;;;;;;6281255;22;20343;-86
2023/08/30 11:18:20;;;;;;;17.35;10.00;;;15.10;99.90;;;;;;6240716;22;20031;-85
2023/08/30 11:21:02;;;;;;;16.58;10.40;;;15.00;99.90;;;;;;6219696;23;20070;-87
2023/08/30 11:23:34;;;;;;;17.13;10.50;;;15.00;99.90;;;;;;6217633;23;20027;-86
2023/08/30 11:26:03;;;;;;;18.42;10.38;;;15.00;99.90;;;;;;6217376;23;20012;-87
2023/08/30 11:28:29;;;;;;;19.08;11.75;;;15.00;99.90;;;;;;6219282;23;20020;-85
2023/08/30 11:30:55;;;;;;;20.13;11.77;;;15.00;99.90;;;;;;6246272;23;20016;-85
2023/08/30 11:33:21;;;;;;;19.17;11.38;;;15.80;99.90;;;;;;6245870;22;20340;-85
2023/08/30 11:35:51;;;;;;;21.23;12.13;;;14.90;99.90;;;;;;6245097;23;20016;-84
2023/08/30 11:38:19;;;;;;;20.63;13.40;;;14.90;99.90;;;;;;6245012;22;20020;-85
2023/08/30 11:40:45;;;;;;;20.92;12.98;;;14.90;99.90;;;;;;6245532;23;20453;-85
2023/08/30 11:43:21;;;;;;;20.33;12.52;;;15.00;99.90;;;;;;6245013;23;20017;-84
2023/08/30 11:46:00;;;;;;;21.27;13.20;;;15.00;99.90;;;;;;6244938;23;20350;-85
2023/08/30 11:48:27;;;;;;;20.92;14.00;;;15.10;99.90;;;;;;6219504;23;20012;-84
2023/08/30 11:50:53;;;;;;;20.63;13.20;;;15.00;99.90;;;;;;6218636;23;20047;-84
2023/08/30 11:53:19;;;;;;;22.40;13.55;;;15.10;99.90;;;;;;6217461;23;20016;-85
2023/08/30 11:55:45;;;;;;;21.98;13.77;;;15.10;99.90;;;;;;6244846;22;20016;-84
2023/08/30 11:58:11;;;;;;;21.13;13.73;;;15.20;99.90;;;;;;6245777;23;20077;-86
2023/08/30 12:00:45;;;;;;;21.23;13.68;;;15.20;99.90;;;;;;6217608;23;20012;-84
2023/08/30 12:03:14;;;;;;;22.98;13.65;;;15.10;99.90;;;;;;6246162;23;20020;-85
2023/08/30 12:05:50;;;;;;;22.92;13.65;;;15.10;99.90;;;;;;6218164;23;20018;-85
2023/08/30 12:08:21;;;;;;;21.77;14.10;;;15.00;99.90;;;;;;6246263;23;20012;-86
2023/08/30 12:10:47;;;;;;;19.48;11.93;;;15.60;99.90;;;;;;6218822;23;20020;-86
2023/08/30 12:13:32;;;;;;;21.65;12.23;;;15.20;99.90;;;;;;6217729;23;20162;-86
2023/08/30 12:16:03;;;;;;;19.10;11.93;;;15.10;99.90;;;;;;6218467;23;20023;-85
2023/08/30 12:18:55;;;;;;;21.38;12.23;;;15.10;99.90;;;;;;6217869;23;20444;-85
2023/08/30 12:21:20;;;;;;;19.73;12.10;;;15.00;99.90;;;;;;6217803;23;20024;-86
2023/08/30 12:23:46;;;;;;;18.50;10.05;;;15.20;99.90;;;;;;6217871;23;20017;-86
2023/08/30 12:26:31;;;;;;;15.82;9.80;;;15.10;99.90;;;;;;6219039;23;20101;-85
2023/08/30 12:28:56;;;;;;;18.25;10.10;;;15.10;99.90;;;;;;6244622;23;20016;-87
2023/08/30 12:31:23;;;;;;;15.88;9.50;;;15.00;99.90;;;;;;6246429;23;20085;-86
2023/08/30 12:34:00;;;;;;;15.77;9.70;;;15.10;99.90;;;;;;6217988;23;20016;-88
2023/08/30 12:36:26;;;;;;;16.85;10.43;;;15.10;99.90;;;;;;6219118;23;20343;-88
2023/08/30 12:39:04;;;;;;;18.17;10.00;;;15.70;99.90;;;;;;6245472;23;20095;-90
2023/08/30 12:41:30;;;;;;;14.80;8.63;;;15.20;99.90;;;;;;6218693;23;20016;-89
2023/08/30 12:43:55;;;;;;;15.50;9.32;;;15.20;99.90;;;;;;6246100;23;20461;-87
2023/08/30 12:46:21;;;;;;;15.70;9.07;;;15.20;99.90;;;;;;6246262;23;20348;-89
2023/08/30 12:48:47;;;;;;;15.65;9.40;;;15.10;99.90;;;;;;6217660;23;20016;-89
2023/08/30 12:51:14;;;;;;;13.98;8.55;;;15.10;99.90;;;;;;6216270;22;20020;-88
2023/08/30 12:53:55;;;;;;;15.38;8.95;;;15.10;99.90;;;;;;6218783;23;20432;-89
2023/08/30 12:56:21;;;;;;;14.77;8.80;;;15.20;99.90;;;;;;6218020;23;20024;-90
2023/08/30 12:58:59;;;;;;;13.48;7.85;;;16.00;99.90;;;;;;6218259;23;20488;-89
2023/08/30 13:01:33;;;;;;;13.38;7.68;;;15.30;99.90;;;;;;6245910;23;20435;-90
2023/08/30 13:04:14;;;;;;;14.25;7.82;;;15.30;99.90;;;;;;6218904;23;20058;-90
2023/08/30 13:06:40;;;;;;;14.73;7.80;;;15.30;99.90;;;;;;6217940;23;20024;-88
2023/08/30 13:10:00;;;;;;;13.63;7.97;;;15.30;99.90;;;;;;6244728;23;20013;-88
2023/08/30 13:12:26;;;;;;;12.85;7.80;;;15.20;99.90;;;;;;6241354;23;20016;-88
2023/08/30 13:15:10;;;;;;;14.05;8.18;;;15.30;99.90;;;;;;6218378;23;20078;-88
2023/08/30 13:17:35;;;;;;;13.82;8.40;;;15.40;99.90;;;;;;6244739;23;20020;-88
2023/08/30 13:20:05;;;;;;;13.82;8.45;;;15.30;99.90;;;;;;6219089;23;20019;-88
2023/08/30 13:22:33;;;;;;;14.63;8.20;;;15.40;99.90;;;;;;6220257;23;20051;-89
2023/08/30 13:28:44;;;;;;;14.40;7.70;;;15.40;99.90;;;;;;6245505;23;20022;-88
2023/08/30 13:31:25;;;;;;;11.63;6.78;;;15.50;99.90;;;;;;6217918;23;20051;-89
2023/08/30 13:33:50;;;;;;;12.90;7.22;;;15.50;99.90;;;;;;6218197;23;20019;-87
2023/08/30 13:36:16;;;;;;;12.00;6.95;;;15.50;99.90;;;;;;6245481;23;20024;-89
2023/08/30 13:38:42;;;;;;;12.77;6.97;;;15.40;99.90;;;;;;6218613;23;20456;-88
2023/08/30 13:41:08;;;;;;;12.20;7.20;;;15.40;99.90;;;;;;6218757;23;20012;-88
2023/08/30 13:43:33;;;;;;;13.52;7.40;;;16.00;99.90;;;;;;6246115;23;20429;-88
2023/08/30 13:46:00;;;;;;;12.85;7.30;;;15.40;99.90;;;;;;6219766;23;20459;-87
2023/08/30 13:48:32;;;;;;;12.75;7.63;;;16.10;99.90;;;;;;6219211;23;20352;-88
2023/08/30 13:50:57;;;;;;;13.43;7.65;;;15.50;99.90;;;;;;6218661;23;20095;-88
2023/08/30 13:53:24;;;;;;;13.98;7.90;;;16.30;99.90;;;;;;6217758;23;20055;-88
2023/08/30 13:55:50;;;;;;;13.93;8.50;;;15.60;99.90;;;;;;6218027;23;20445;-88
2023/08/30 13:58:16;;;;;;;16.77;9.30;;;15.60;99.90;;;;;;6218042;23;20027;-88
2023/08/30 14:00:50;;;;;;;16.17;9.70;;;15.60;99.90;;;;;;6246142;23;20019;-89
2023/08/30 14:03:16;;;;;;;16.95;9.93;;;15.60;99.90;;;;;;6219094;23;20024;-83
2023/08/30 14:05:42;;;;;;;15.95;9.57;;;15.90;99.90;;;;;;6216290;23;20023;-84
2023/08/30 14:08:07;;;;;;;16.55;10.40;;;16.00;99.90;;;;;;6244206;23;20317;-83
2023/08/30 14:10:33;;;;;;;18.13;9.85;;;16.30;99.90;;;;;;6244284;23;20008;-86
2023/08/30 14:13:05;;;;;;;16.25;10.68;;;16.40;99.90;;;;;;6216965;23;20008;-82
2023/08/30 14:15:31;;;;;;;17.25;10.73;;;16.50;99.90;;;;;;6217753;23;20055;-84
2023/08/30 14:17:57;;;;;;;16.42;10.35;;;17.00;99.90;;;;;;6215175;23;20012;-82
2023/08/30 14:20:23;;;;;;;15.63;9.95;;;16.60;99.90;;;;;;6243615;23;20016;-83
2023/08/30 14:22:48;;;;;;;16.58;10.30;;;16.60;99.90;;;;;;6244188;23;20023;-82
2023/08/30 14:25:14;;;;;;;17.27;10.57;;;16.50;99.90;;;;;;6217651;23;20012;-82
2023/08/30 14:27:40;;;;;;;15.95;9.60;;;16.70;99.90;;;;;;6243710;23;20090;-82
2023/08/30 14:30:06;;;;;;;14.38;8.75;;;16.70;99.90;;;;;;6218040;23;20040;-83
2023/08/30 14:32:35;;;;;;;13.73;8.30;;;16.80;99.90;;;;;;6217243;23;20031;-82
2023/08/30 14:35:03;;;;;;;14.07;9.10;;;16.80;99.90;;;;;;6243928;23;20012;-82
2023/08/30 14:37:29;;;;;;;12.55;7.82;;;16.80;99.90;;;;;;6245018;23;20039;-82
2023/08/30 14:39:54;;;;;;;13.23;8.10;;;16.70;99.90;;;;;;6192697;23;20322;-82
2023/08/30 14:42:21;;;;;;;13.70;8.35;;;16.60;99.90;;;;;;6216745;23;20082;-82
2023/08/30 14:44:50;;;;;;;13.43;7.80;;;16.60;99.90;;;;;;6216570;23;20091;-82
2023/08/30 14:47:17;;;;;;;12.68;8.10;;;16.70;99.90;;;;;;6246063;23;20462;-82
2023/08/30 14:49:42;;;;;;;10.52;5.90;;;17.00;99.90;;;;;;6219304;23;20396;-83
2023/08/30 14:52:08;;;;;;;9.20;4.47;;;17.60;99.90;;;;;;6219378;23;20023;-82
2023/08/30 14:54:34;;;;;;;8.43;3.78;;;17.80;99.90;;;;;;6218476;23;20023;-84
2023/08/30 14:56:59;;;;;;;8.80;4.38;;;18.00;99.90;;;;;;6219129;23;20020;-82
2023/08/30 14:59:25;;;;;;;7.05;2.70;;;18.10;99.90;;;;;;6217814;23;20069;-84
2023/08/30 15:01:51;;;;;;;7.68;2.70;;;17.90;99.90;;;;;;6218244;23;20095;-86
2023/08/30 15:04:16;;;;;;;6.28;2.28;;;17.70;99.90;;;;;;6219735;23;20019;-83
2023/08/30 15:06:42;;;;;;;4.55;1.80;;;17.60;99.90;;;;;;6246097;23;20131;-83
2023/08/30 15:09:09;;;;;;;5.63;1.95;;;17.50;99.90;;;;;;6247021;23;20031;-83
2023/08/30 15:11:35;;;;;;;5.50;1.90;;;17.30;99.90;;;;;;6219035;23;20098;-82
2023/08/30 15:14:00;;;;;;;4.60;1.70;;;17.30;99.90;;;;;;6219307;23;20050;-83
2023/08/30 15:16:26;;;;;;;5.20;1.90;;;17.20;99.90;;;;;;6245570;23;20336;-83
2023/08/30 15:18:52;;;;;;;5.65;2.05;;;17.40;99.90;;;;;;6218133;23;20087;-82
2023/08/30 15:21:17;;;;;;;5.68;1.98;;;17.60;99.90;;;;;;6218710;23;20026;-84
2023/08/30 15:23:43;;;;;;;6.78;2.35;;;17.70;99.90;;;;;;6244114;23;20047;-85
2023/08/30 15:26:10;;;;;;;7.25;2.28;;;17.50;99.90;;;;;;6246572;23;20016;-86
2023/08/30 15:28:36;;;;;;;6.57;2.40;;;17.40;99.90;;;;;;6218627;23;20016;-83
2023/08/30 15:31:03;;;;;;;7.50;2.30;;;17.50;99.90;;;;;;6245892;23;20502;-83
2023/08/30 15:33:28;;;;;;;7.15;2.67;;;17.50;99.90;;;;;;6246214;23;20008;-82
2023/08/30 15:35:58;;;;;;;6.97;2.80;;;17.80;99.90;;;;;;6217874;23;20016;-83
2023/08/30 15:38:24;;;;;;;7.30;2.95;;;17.60;99.90;;;;;;6245425;23;20016;-83
2023/08/30 15:40:53;;;;;;;7.40;3.00;;;17.60;99.90;;;;;;6218866;23;20455;-84
2023/08/30 15:43:19;;;;;;;7.00;2.90;;;17.40;99.90;;;;;;6218904;23;20012;-83
2023/08/30 15:45:44;;;;;;;7.82;3.00;;;17.40;99.90;;;;;;6218297;23;20073;-85
2023/08/30 15:48:10;;;;;;;7.22;3.05;;;17.20;99.90;;;;;;6219126;23;20008;-83
2023/08/30 15:50:36;;;;;;;7.00;2.90;;;17.00;99.90;;;;;;6217266;23;20052;-84
2023/08/30 15:53:02;;;;;;;7.30;3.10;;;17.00;99.90;;;;;;6244864;23;20349;-84
2023/08/30 15:55:28;;;;;;;7.07;2.80;;;16.80;99.90;;;;;;6217729;23;20020;-83
2023/08/30 15:57:54;;;;;;;7.53;3.15;;;16.70;99.90;;;;;;6244998;23;20071;-84
2023/08/30 16:00:20;;;;;;;7.20;2.65;;;16.80;99.90;;;;;;6219023;23;20012;-82
2023/08/30 16:02:45;;;;;;;7.53;2.97;;;16.80;99.90;;;;;;6242962;23;20023;-82
2023/08/30 16:05:11;;;;;;;7.20;3.10;;;16.80;99.90;;;;;;6217999;23;20526;-82
2023/08/30 16:07:37;;;;;;;10.23;3.50;;;16.80;99.90;;;;;;6217748;23;20020;-82
2023/08/30 16:10:03;;;;;;;7.63;3.28;;;16.70;99.90;;;;;;6245737;23;20019;-82
2023/08/30 16:12:29;;;;;;;7.97;3.25;;;16.70;99.90;;;;;;6217620;23;20023;-82
2023/08/30 16:14:55;;;;;;;7.60;3.33;;;16.60;99.90;;;;;;6218372;23;20016;-82
2023/08/30 16:17:20;;;;;;;8.15;3.13;;;16.60;99.90;;;;;;6245043;23;20016;-82
2023/08/30 16:19:46;;;;;;;7.70;3.20;;;16.70;99.90;;;;;;6243726;23;20017;-81
2023/08/30 16:22:12;;;;;;;7.78;3.30;;;16.80;99.90;;;;;;6218453;23;20070;-80
2023/08/30 16:24:37;;;;;;;9.20;3.60;;;16.80;99.90;;;;;;6217654;23;20024;-81
2023/08/30 16:27:03;;;;;;;7.68;3.40;;;16.80;99.90;;;;;;6243947;23;20069;-81
2023/08/30 16:29:29;;;;;;;7.80;3.53;;;16.80;99.90;;;;;;6244569;23;20016;-81
2023/08/30 16:34:22;;;;;;;7.60;3.30;;;16.90;99.90;;;;;;6244833;23;20410;-81
2023/08/30 16:36:48;;;;;;;9.65;3.22;;;17.50;99.90;;;;;;6245182;23;20012;-82
2023/08/30 16:39:17;;;;;;;7.35;3.10;;;16.90;99.90;;;;;;6218278;23;20058;-81
2023/08/30 16:41:43;;;;;;;7.22;3.00;;;16.80;99.90;;;;;;6217380;23;20066;-82
2023/08/30 16:44:09;;;;;;;7.35;2.88;;;16.60;99.90;;;;;;6245707;23;20012;-82
2023/08/30 16:46:36;;;;;;;7.78;3.13;;;16.40;99.90;;;;;;6244138;23;20023;-81
2023/08/30 16:49:03;;;;;;;7.68;3.00;;;16.30;99.90;;;;;;6217264;23;20020;-82
2023/08/30 16:51:29;;;;;;;8.30;3.38;;;16.10;99.90;;;;;;6217885;23;20020;-82
2023/08/30 16:53:54;;;;;;;7.18;2.90;;;16.10;99.90;;;;;;6216785;23;20015;-81
2023/08/30 16:56:20;;;;;;;7.47;2.83;;;16.00;99.90;;;;;;6217135;23;20016;-81
2023/08/30 16:58:46;;;;;;;7.80;2.90;;;15.90;99.90;;;;;;6244711;23;20392;-82
2023/08/30 17:01:11;;;;;;;7.28;2.80;;;15.90;99.90;;;;;;6216404;23;20802;-81
2023/08/30 17:03:37;;;;;;;6.85;2.50;;;15.90;99.90;;;;;;6217203;23;20102;-84
2023/08/30 17:06:03;;;;;;;7.82;2.88;;;15.80;99.90;;;;;;6217495;23;20035;-82
2023/08/30 17:08:32;;;;;;;7.72;2.80;;;15.70;99.90;;;;;;6243223;23;20322;-82
2023/08/30 17:11:08;;;;;;;7.78;2.90;;;15.70;99.90;;;;;;6243640;23;20449;-82
2023/08/30 17:13:35;;;;;;;7.85;2.78;;;15.60;99.90;;;;;;6244578;23;20012;-82
2023/08/30 17:16:07;;;;;;;7.65;2.72;;;15.50;99.90;;;;;;6243564;23;20012;-81
2023/08/30 17:18:36;;;;;;;8.50;3.33;;;15.40;99.90;;;;;;6214857;23;20115;-82
2023/08/30 17:21:03;;;;;;;10.90;3.95;;;15.30;99.90;;;;;;6241762;23;20329;-83
2023/08/30 17:23:28;;;;;;;9.05;3.60;;;15.10;99.90;;;;;;6242554;23;20020;-83
2023/08/30 17:25:54;;;;;;;8.88;3.10;;;15.60;99.90;;;;;;6243123;23;20064;-83
2023/08/30 17:28:20;;;;;;;10.02;2.83;;;14.80;99.90;;;;;;6216984;23;20027;-83
2023/08/30 17:30:46;;;;;;;16.38;7.15;;;14.50;99.90;;;;;;6216701;23;20020;-84
2023/08/30 17:33:12;;;;;;;11.38;4.65;;;15.20;99.90;;;;;;6217282;23;20020;-85
2023/08/30 17:35:40;;;;;;;8.68;2.55;;;14.30;99.90;;;;;;6244630;23;20038;-87
2023/08/30 17:38:06;;;;;;;8.32;2.53;;;14.10;99.90;;;;;;6243201;23;20071;-85
2023/08/30 17:40:33;;;;;;;14.50;4.95;;;14.00;99.90;;;;;;6217931;23;20020;-84
2023/08/30 17:43:00;;;;;;;18.00;10.52;;;14.80;99.90;;;;;;6215893;23;20047;-84
2023/08/30 17:45:29;;;;;;;24.70;14.15;;;14.50;99.90;;;;;;6244275;23;20016;-83
2023/08/30 17:47:55;;;;;;;11.68;4.97;;;14.10;99.90;;;;;;6244886;23;20464;-82
2023/08/30 17:50:20;;;;;;;10.70;3.20;;;14.10;99.90;;;;;;6244259;23;20020;-83
2023/08/30 17:52:46;;;;;;;8.77;2.42;;;14.60;99.90;;;;;;6217763;23;20111;-84
2023/08/30 17:55:14;;;;;;;8.68;3.08;;;13.60;99.90;;;;;;6217690;23;20400;-85
2023/08/30 17:57:42;;;;;;;8.23;2.50;;;13.60;99.90;;;;;;6216952;23;20042;-83
2023/08/30 18:00:09;;;;;;;9.68;2.58;;;13.60;99.90;;;;;;6218116;23;20102;-82
2023/08/30 18:02:35;;;;;;;13.43;2.60;;;13.60;99.90;;;;;;6217669;23;20045;-83
2023/08/30 18:05:05;;;;;;;7.85;2.45;;;13.50;99.90;;;;;;6216856;23;20020;-82
2023/08/30 18:07:31;;;;;;;9.52;2.53;;;13.50;99.90;;;;;;6244989;23;20016;-82
2023/08/30 18:09:56;;;;;;;8.63;2.60;;;13.50;99.90;;;;;;6244778;23;20483;-82
2023/08/30 18:12:22;;;;;;;7.97;2.80;;;13.40;99.90;;;;;;6244423;23;20314;-82
2023/08/30 18:14:47;;;;;;;11.50;2.83;;;13.50;99.90;;;;;;6244946;23;20376;-82
2023/08/30 18:17:13;;;;;;;10.23;4.05;;;13.50;99.90;;;;;;6244633;23;20449;-82
2023/08/30 18:19:46;;;;;;;21.25;12.63;;;13.40;99.90;;;;;;6243849;23;20015;-82
2023/08/30 18:22:11;;;;;;;10.40;4.00;;;13.40;99.90;;;;;;6219908;23;20027;-82
2023/08/30 18:24:37;;;;;;;9.57;3.60;;;14.20;99.90;;;;;;6217736;23;20016;-82
2023/08/30 18:27:04;;;;;;;10.98;3.20;;;14.00;99.90;;;;;;6245425;23;20095;-82
2023/08/30 18:29:45;;;;;;;14.82;8.32;;;13.40;99.90;;;;;;6246114;23;20087;-82
2023/08/30 18:32:12;;;;;;;29.23;17.35;;;13.60;99.90;;;;;;6246893;23;20086;-83
2023/08/30 18:34:38;;;;;;;20.20;13.30;;;13.30;99.90;;;;;;6215730;23;20020;-81
2023/08/30 18:37:05;;;;;;;16.75;8.13;;;13.30;99.90;;;;;;6216097;23;20070;-82
2023/08/30 18:39:31;;;;;;;10.88;3.95;;;13.20;99.90;;;;;;6242589;23;20043;-82
2023/08/30 18:41:57;;;;;;;9.88;3.38;;;13.20;99.90;;;;;;6243165;23;20440;-81
2023/08/30 18:44:23;;;;;;;10.75;3.50;;;13.10;99.90;;;;;;6216036;23;20040;-82
2023/08/30 18:46:49;;;;;;;10.98;3.50;;;13.00;99.90;;;;;;6215590;23;20337;-82
2023/08/30 18:49:15;;;;;;;9.80;3.30;;;12.90;99.90;;;;;;6217123;23;20019;-83
2023/08/30 18:51:40;;;;;;;9.82;3.38;;;12.80;99.90;;;;;;6214484;23;20126;-82
2023/08/30 18:54:06;;;;;;;11.70;3.65;;;12.70;99.90;;;;;;6241724;23;20023;-82
2023/08/30 18:56:33;;;;;;;12.70;4.00;;;12.70;99.90;;;;;;6215973;23;20012;-82
2023/08/30 18:58:58;;;;;;;10.27;3.75;;;13.40;99.90;;;;;;6241700;23;20451;-82
2023/08/30 19:01:28;;;;;;;9.75;4.00;;;13.40;99.90;;;;;;6242697;23;20015;-83
2023/08/30 19:03:54;;;;;;;12.68;4.10;;;12.40;99.90;;;;;;6216190;23;20095;-82
2023/08/30 19:06:20;;;;;;;12.00;3.70;;;12.40;99.90;;;;;;6217134;23;20020;-83
2023/08/30 19:08:48;;;;;;;10.82;3.85;;;12.30;99.90;;;;;;6215702;23;20031;-84
2023/08/30 19:11:15;;;;;;;10.30;3.80;;;12.30;99.90;;;;;;6216674;23;20016;-83
2023/08/30 19:13:41;;;;;;;10.00;3.83;;;12.20;99.90;;;;;;6217692;23;20016;-83